Latest Coastal Weather Observations for Cape Ferguson

IDQ60701

Issued at 10:11 pm EST Sunday 26 February 2017 (issued every 10 minutes, with the page automatically refreshed every 10 minutes)

About coastal observations | Map of coastal stations | Coastal observations for QLD | Marine services | Other Formats
Station Details ID: 032182 Name: CAPE FERGUSON NTC AWS Lat: -19.28 Lon: 147.06 Height: 0.0 m
Data from the previous 72 hours. | See also: Recent months for locations in Queensland
Date/Time
EST
Temp
°C
Wind Pressure Rain since
9am
mm
Weather Cloud Vis
km
Sea
Height
m
Swell
Dir  Spd
kts
Gust
kts
hPa Trend Height
m
Period
s
Dir
26/10:00pm 28.8 E 19 24 1011.9 - - - - - - - - -
26/09:30pm 28.8 ESE 18 22 1011.7 - - - - - - - - -
26/09:00pm 28.7 E 17 20 1011.3 - - - - - - - - -
26/08:30pm 28.7 ESE 16 19 1010.8 - - - - - - - - -
26/08:00pm 28.8 E 16 18 1010.5 - - - - - - - - -
26/07:30pm 28.9 E 15 18 1010.1 - - - - - - - - -
26/07:00pm 28.9 E 15 18 1009.8 - - - - - - - - -
26/06:30pm 28.9 E 14 17 1009.5 - - - - - - - - -
26/06:00pm 28.9 E 15 20 1009.3 - - - - - - - - -
26/05:30pm 29.1 E 13 19 1009.1 - - - - - - - - -
26/05:00pm 29.2 E 14 17 1009.1 - - - - - - - - -
26/04:30pm 29.3 E 14 17 1009.0 - - - - - - - - -
26/04:00pm 29.1 E 13 16 1008.8 - - - - - - - - -
26/03:30pm 29.1 E 13 16 1008.7 - - - - - - - - -
26/03:00pm 29.1 E 12 15 1008.9 - - - - - - - - -
26/02:30pm 29.0 E 14 17 1009.0 - - - - - - - - -
26/02:00pm 29.0 E 14 18 1009.5 - - - - - - - - -
26/01:30pm 28.9 E 14 16 1009.9 - - - - - - - - -
26/01:00pm 28.8 E 13 16 1010.4 - - - - - - - - -
26/12:30pm 28.8 E 14 16 1010.7 - - - - - - - - -
26/12:00pm 28.8 ESE 13 16 1011.0 - - - - - - - - -
26/11:30am 28.6 SE 11 16 1011.3 - - - - - - - - -
26/11:00am 28.2 SE 9 11 1011.2 - - - - - - - - -
26/10:30am 28.0 SE 10 13 1011.3 - - - - - - - - -
26/10:00am 27.5 SE 11 14 1011.6 - - - - - - - - -
26/09:30am 26.7 SE 9 12 1011.8 - - - - - - - - -
26/09:00am 26.7 SE 7 10 1011.6 - - - - - - - - -
26/08:30am 26.2 SE 8 13 1011.7 - - - - - - - - -
26/08:00am 26.1 SSE 8 11 1011.3 - - - - - - - - -
26/07:30am 26.2 SE 11 15 1011.1 - - - - - - - - -
26/07:00am 26.4 SE 11 14 1010.8 - - - - - - - - -
26/06:30am 26.5 SE 9 13 1010.2 - - - - - - - - -
26/06:00am 25.8 WSW 3 11 1009.8 - - - - - - - - -
26/05:30am 26.2 S 8 11 1009.6 - - - - - - - - -
26/05:00am 26.0 SW 4 9 1009.3 - - - - - - - - -
26/04:30am 25.8 W 7 10 1009.0 - - - - - - - - -
26/04:00am 25.9 WSW 7 11 1009.0 - - - - - - - - -
26/03:30am 25.7 W 7 8 1009.0 - - - - - - - - -
26/03:00am 26.0 W 7 10 1009.0 - - - - - - - - -
26/02:30am 25.9 WNW 7 9 1009.2 - - - - - - - - -
26/02:00am 25.6 W 6 8 1009.4 - - - - - - - - -
26/01:30am 25.8 WNW 6 8 1009.7 - - - - - - - - -
26/01:00am 26.1 WNW 4 8 1010.1 - - - - - - - - -
26/12:30am 27.4 SSE 8 10 1010.6 - - - - - - - - -
26/12:00am 27.6 SSE 10 12 1010.8 - - - - - - - - -
 
Date/Time
EST
Temp
°C
Wind Pressure Rain since
9am
mm
Weather Cloud Vis
km
Sea
Height
m
Swell
Dir  Spd
kts
Gust
kts
hPa Trend Height
m
Period
s
Dir
25/11:30pm 28.2 SE 13 15 1011.0 - - - - - - - - -
25/11:00pm 28.9 ESE 18 22 1011.2 - - - - - - - - -
25/10:30pm 28.9 ESE 15 19 1011.4 - - - - - - - - -
25/10:00pm 28.8 ESE 15 19 1011.2 - - - - - - - - -
25/09:30pm 28.8 ESE 15 19 1011.0 - - - - - - - - -
25/09:00pm 28.8 ESE 16 19 1011.1 - - - - - - - - -
25/08:30pm 29.0 E 14 17 1010.9 - - - - - - - - -
25/08:00pm 29.0 E 14 19 1010.7 - - - - - - - - -
25/07:30pm 28.9 E 15 18 1010.3 - - - - - - - - -
25/07:00pm 29.0 E 14 17 1009.9 - - - - - - - - -
25/06:30pm 28.9 E 13 16 1010.0 - - - - - - - - -
25/06:00pm 29.0 E 12 15 1009.7 - - - - - - - - -
25/05:30pm 29.0 E 13 16 1009.5 - - - - - - - - -
25/05:00pm 29.1 E 12 17 1009.2 - - - - - - - - -
25/04:30pm 29.2 E 12 15 1009.2 - - - - - - - - -
25/04:00pm 29.0 E 13 15 1009.2 - - - - - - - - -
25/03:30pm 29.0 ENE 13 16 1009.2 - - - - - - - - -
25/03:00pm 29.0 ENE 11 13 1009.3 - - - - - - - - -
25/02:30pm 29.0 E 12 15 1009.6 - - - - - - - - -
25/02:00pm 28.9 ENE 14 17 1009.8 - - - - - - - - -
25/01:30pm 29.1 E 13 16 1010.2 - - - - - - - - -
25/01:00pm 28.9 E 12 15 1010.5 - - - - - - - - -
25/12:30pm 28.8 E 12 15 1010.9 - - - - - - - - -
25/12:00pm 28.6 ESE 10 14 1011.4 - - - - - - - - -
25/11:30am 28.4 ESE 7 10 1011.7 - - - - - - - - -
25/11:00am 28.3 SE 8 10 1012.1 - - - - - - - - -
25/10:30am 28.1 SE 7 8 1012.5 - - - - - - - - -
25/10:00am 27.4 SE 7 10 1012.7 - - - - - - - - -
25/09:30am 27.1 S 6 9 1012.8 - - - - - - - - -
25/09:00am 27.2 SSE 7 11 1012.6 - - - - - - - - -
25/08:30am 26.6 SE 9 13 1012.7 - - - - - - - - -
25/08:00am 26.7 S 8 10 1012.4 - - - - - - - - -
25/07:30am 26.7 SSE 8 10 1012.1 - - - - - - - - -
25/07:00am 26.0 SE 10 11 1011.9 - - - - - - - - -
25/06:30am 25.5 ESE 14 20 1012.4 - - - - - - - - -
25/06:00am 24.8 SSW 1 3 1011.5 - - - - - - - - -
25/05:30am 24.7 NW 2 4 1011.1 - - - - - - - - -
25/05:00am 25.6 SE 5 8 1011.0 - - - - - - - - -
25/04:30am 26.0 NE 2 5 1010.5 - - - - - - - - -
25/04:00am 24.6 E 10 14 1010.8 - - - - - - - - -
25/03:57am 24.3 E 12 16 1011.0 - - - - - - - - -
25/03:30am 26.3 SSE 8 31 1011.4 - - - - - - - - -
25/03:29am 27.1 S 6 31 1011.1 - - - - - - - - -
25/03:00am 25.6 NNE 5 9 1010.6 - - - - - - - - -
25/02:30am 27.6 ESE 7 10 1010.7 - - - - - - - - -
25/02:02am 26.9 ESE 17 27 1011.0 - - - - - - - - -
25/02:00am 26.6 ESE 18 27 1011.1 - - - - - - - - -
25/01:53am 28.2 E 16 26 1011.2 - - - - - - - - -
25/01:30am 28.9 ESE 12 15 1011.3 - - - - - - - - -
25/01:00am 28.2 SE 11 15 1011.3 - - - - - - - - -
25/12:30am 28.9 ESE 14 18 1011.7 - - - - - - - - -
25/12:00am 28.8 ESE 11 17 1012.0 - - - - - - - - -
 
Date/Time
EST
Temp
°C
Wind Pressure Rain since
9am
mm
Weather Cloud Vis
km
Sea
Height
m
Swell
Dir  Spd
kts
Gust
kts
hPa Trend Height
m
Period
s
Dir
24/11:30pm 28.3 E 15 21 1012.2 - - - - - - - - -
24/11:00pm 28.5 E 13 20 1012.5 - - - - - - - - -
24/10:30pm 28.7 ESE 14 18 1012.8 - - - - - - - - -
24/10:00pm 28.8 ESE 16 20 1012.9 - - - - - - - - -
24/09:30pm 28.9 ESE 14 17 1012.7 - - - - - - - - -
24/09:00pm 29.1 E 13 16 1012.4 - - - - - - - - -
24/08:30pm 29.1 ESE 13 16 1012.4 - - - - - - - - -
24/08:00pm 29.1 ESE 15 18 1011.9 - - - - - - - - -
24/07:30pm 28.9 E 13 16 1011.6 - - - - - - - - -
24/07:00pm 29.0 E 11 13 1011.1 - - - - - - - - -
24/06:30pm 28.8 ESE 11 15 1011.0 - - - - - - - - -
24/06:00pm 28.8 E 13 17 1010.9 - - - - - - - - -
24/05:30pm 28.8 E 16 19 1011.0 - - - - - - - - -
24/05:00pm 29.0 E 16 18 1010.6 - - - - - - - - -
24/04:30pm 28.9 E 16 18 1010.7 - - - - - - - - -
24/04:00pm 29.0 E 17 20 1010.7 - - - - - - - - -
24/03:30pm 28.8 E 17 20 1010.5 - - - - - - - - -
24/03:00pm 29.0 E 14 17 1010.6 - - - - - - - - -
24/02:30pm 29.3 E 14 16 1010.9 - - - - - - - - -
24/02:00pm 29.1 E 14 17 1011.4 - - - - - - - - -
24/01:30pm 29.1 E 14 16 1011.7 - - - - - - - - -
24/01:00pm 29.1 E 15 16 1012.2 - - - - - - - - -
24/12:30pm 29.1 E 13 16 1012.6 - - - - - - - - -
24/12:00pm 29.2 ESE 10 13 1013.0 - - - - - - - - -
24/11:30am 28.9 SE 7 9 1013.4 - - - - - - - - -
24/11:00am 28.7 SE 8 10 1013.6 - - - - - - - - -
24/10:30am 28.7 SE 9 11 1013.9 - - - - - - - - -
24/10:00am 28.4 SE 10 13 1013.8 - - - - - - - - -
24/09:30am 28.3 SE 9 11 1013.9 - - - - - - - - -
24/09:00am 27.8 SSE 9 12 1014.0 - - - - - - - - -
24/08:30am 27.5 SSE 10 13 1013.7 - - - - - - - - -
24/08:00am 27.2 SSE 11 13 1013.4 - - - - - - - - -
24/07:30am 27.0 SSE 13 15 1013.0 - - - - - - - - -
24/07:00am 26.9 S 11 13 1012.8 - - - - - - - - -
24/06:30am 26.9 S 11 13 1012.8 - - - - - - - - -
24/06:00am 27.1 S 12 15 1012.7 - - - - - - - - -
24/05:30am 27.0 SSE 12 14 1012.5 - - - - - - - - -
24/05:00am 27.1 SSE 10 12 1012.3 - - - - - - - - -
24/04:30am 27.1 SSE 11 13 1012.0 - - - - - - - - -
24/04:00am 27.1 SSE 11 13 1012.0 - - - - - - - - -
24/03:30am 27.4 SSE 10 12 1012.1 - - - - - - - - -
24/03:00am 27.5 SSE 11 13 1012.1 - - - - - - - - -
24/02:30am 27.8 SSE 11 13 1012.4 - - - - - - - - -
24/02:00am 28.0 SSE 11 13 1012.5 - - - - - - - - -
24/01:30am 28.8 ESE 16 19 1013.3 - - - - - - - - -
24/01:00am 29.0 E 15 19 1013.4 - - - - - - - - -
24/12:30am 28.9 ESE 15 19 1013.9 - - - - - - - - -
24/12:00am 28.9 ESE 15 21 1014.1 - - - - - - - - -
 
Date/Time
EST
Temp
°C
Wind Pressure Rain since
9am
mm
Weather Cloud Vis
km
Sea
Height
m
Swell
Dir  Spd
kts
Gust
kts
hPa Trend Height
m
Period
s
Dir
23/11:30pm 28.9 E 16 19 1014.2 - - - - - - - - -
23/11:00pm 29.1 ESE 16 19 1014.4 - - - - - - - - -
23/10:30pm 29.0 ESE 13 16 1014.6 - - - - - - - - -

Other Formats:

Comma delimited format used in spreadsheet applications
http://www.bom.gov.au/fwo/IDQ60701/IDQ60701.94297.axf

JavaScript Object Notation format (JSON) in row-major order
http://www.bom.gov.au/fwo/IDQ60701/IDQ60701.94297.json